sensor_id;sensor_type;location;lat;lon;timestamp;P1;durP1;ratioP1;P2;durP2;ratioP2
13335;SDS011;6737;51.480;11.962;2023-02-26T00:01:15;4.57;;;1.10;;
13335;SDS011;6737;51.480;11.962;2023-02-26T00:03:43;4.07;;;1.20;;
13335;SDS011;6737;51.480;11.962;2023-02-26T00:06:16;2.40;;;1.10;;
13335;SDS011;6737;51.480;11.962;2023-02-26T00:08:43;5.20;;;1.10;;
13335;SDS011;6737;51.480;11.962;2023-02-26T00:11:09;3.93;;;1.20;;
13335;SDS011;6737;51.480;11.962;2023-02-26T00:13:36;3.33;;;0.93;;
13335;SDS011;6737;51.480;11.962;2023-02-26T00:16:08;2.70;;;1.00;;
13335;SDS011;6737;51.480;11.962;2023-02-26T00:18:51;3.30;;;1.20;;
13335;SDS011;6737;51.480;11.962;2023-02-26T00:21:17;2.27;;;1.07;;
13335;SDS011;6737;51.480;11.962;2023-02-26T00:23:45;2.50;;;1.10;;
13335;SDS011;6737;51.480;11.962;2023-02-26T00:26:11;2.73;;;0.93;;
13335;SDS011;6737;51.480;11.962;2023-02-26T00:28:37;3.37;;;1.10;;
13335;SDS011;6737;51.480;11.962;2023-02-26T00:31:03;2.73;;;1.20;;
13335;SDS011;6737;51.480;11.962;2023-02-26T00:33:29;3.33;;;1.10;;
13335;SDS011;6737;51.480;11.962;2023-02-26T00:35:56;2.77;;;1.00;;
13335;SDS011;6737;51.480;11.962;2023-02-26T00:38:38;2.67;;;1.00;;
13335;SDS011;6737;51.480;11.962;2023-02-26T00:41:07;3.10;;;1.00;;
13335;SDS011;6737;51.480;11.962;2023-02-26T00:43:33;3.73;;;1.20;;
13335;SDS011;6737;51.480;11.962;2023-02-26T00:48:48;2.77;;;0.90;;
13335;SDS011;6737;51.480;11.962;2023-02-26T00:51:27;2.90;;;1.10;;
13335;SDS011;6737;51.480;11.962;2023-02-26T00:54:01;2.50;;;1.30;;
13335;SDS011;6737;51.480;11.962;2023-02-26T00:56:48;3.27;;;1.27;;
13335;SDS011;6737;51.480;11.962;2023-02-26T00:59:15;5.10;;;1.17;;
13335;SDS011;6737;51.480;11.962;2023-02-26T01:01:41;5.23;;;1.70;;
13335;SDS011;6737;51.480;11.962;2023-02-26T01:04:08;2.73;;;1.10;;
13335;SDS011;6737;51.480;11.962;2023-02-26T01:06:37;5.53;;;1.30;;
13335;SDS011;6737;51.480;11.962;2023-02-26T01:09:25;3.80;;;1.37;;
13335;SDS011;6737;51.480;11.962;2023-02-26T01:11:57;4.67;;;1.20;;
13335;SDS011;6737;51.480;11.962;2023-02-26T01:14:26;3.10;;;1.20;;
13335;SDS011;6737;51.480;11.962;2023-02-26T01:19:50;2.53;;;1.20;;
13335;SDS011;6737;51.480;11.962;2023-02-26T01:22:36;5.03;;;1.23;;
13335;SDS011;6737;51.480;11.962;2023-02-26T01:25:05;4.27;;;1.30;;
13335;SDS011;6737;51.480;11.962;2023-02-26T01:27:36;1.67;;;1.20;;
13335;SDS011;6737;51.480;11.962;2023-02-26T01:30:03;2.87;;;1.20;;
13335;SDS011;6737;51.480;11.962;2023-02-26T01:38:15;4.33;;;1.50;;
13335;SDS011;6737;51.480;11.962;2023-02-26T01:48:50;1.97;;;1.20;;
13335;SDS011;6737;51.480;11.962;2023-02-26T01:51:36;3.03;;;1.37;;
13335;SDS011;6737;51.480;11.962;2023-02-26T01:54:38;2.97;;;1.40;;
13335;SDS011;6737;51.480;11.962;2023-02-26T01:59:34;3.90;;;1.60;;
13335;SDS011;6737;51.480;11.962;2023-02-26T02:02:07;3.77;;;1.43;;
13335;SDS011;6737;51.480;11.962;2023-02-26T02:04:35;3.17;;;1.30;;
13335;SDS011;6737;51.480;11.962;2023-02-26T02:07:03;4.07;;;1.30;;
13335;SDS011;6737;51.480;11.962;2023-02-26T02:09:29;3.73;;;1.33;;
13335;SDS011;6737;51.480;11.962;2023-02-26T02:17:49;3.13;;;1.63;;
13335;SDS011;6737;51.480;11.962;2023-02-26T02:20:25;6.70;;;1.50;;
13335;SDS011;6737;51.480;11.962;2023-02-26T02:34:23;3.23;;;1.70;;
13335;SDS011;6737;51.480;11.962;2023-02-26T02:40:04;3.23;;;1.70;;
13335;SDS011;6737;51.480;11.962;2023-02-26T02:42:44;5.10;;;1.70;;
13335;SDS011;6737;51.480;11.962;2023-02-26T02:47:46;4.10;;;1.83;;
13335;SDS011;6737;51.480;11.962;2023-02-26T02:50:22;6.30;;;1.57;;
13335;SDS011;6737;51.480;11.962;2023-02-26T02:53:11;2.80;;;1.50;;
13335;SDS011;6737;51.480;11.962;2023-02-26T02:56:16;4.30;;;1.70;;
13335;SDS011;6737;51.480;11.962;2023-02-26T02:58:43;5.77;;;1.90;;
13335;SDS011;6737;51.480;11.962;2023-02-26T03:01:14;2.87;;;1.57;;
13335;SDS011;6737;51.480;11.962;2023-02-26T03:03:48;3.30;;;1.40;;
13335;SDS011;6737;51.480;11.962;2023-02-26T03:06:29;3.83;;;1.33;;
13335;SDS011;6737;51.480;11.962;2023-02-26T03:08:55;3.20;;;1.40;;
13335;SDS011;6737;51.480;11.962;2023-02-26T03:11:22;2.70;;;1.30;;
13335;SDS011;6737;51.480;11.962;2023-02-26T03:13:48;2.57;;;1.40;;
13335;SDS011;6737;51.480;11.962;2023-02-26T03:19:22;3.10;;;1.43;;
13335;SDS011;6737;51.480;11.962;2023-02-26T03:22:11;3.33;;;1.20;;
13335;SDS011;6737;51.480;11.962;2023-02-26T03:24:48;3.53;;;1.40;;
13335;SDS011;6737;51.480;11.962;2023-02-26T03:30:02;2.97;;;1.20;;
13335;SDS011;6737;51.480;11.962;2023-02-26T03:32:42;4.43;;;1.50;;
13335;SDS011;6737;51.480;11.962;2023-02-26T03:41:28;2.73;;;1.40;;
13335;SDS011;6737;51.480;11.962;2023-02-26T03:44:06;4.07;;;1.23;;
13335;SDS011;6737;51.480;11.962;2023-02-26T03:46:59;4.03;;;1.93;;
13335;SDS011;6737;51.480;11.962;2023-02-26T03:49:30;3.80;;;1.30;;
13335;SDS011;6737;51.480;11.962;2023-02-26T03:52:00;3.27;;;1.20;;
13335;SDS011;6737;51.480;11.962;2023-02-26T03:54:30;3.03;;;1.10;;
13335;SDS011;6737;51.480;11.962;2023-02-26T03:57:06;1.90;;;1.00;;
13335;SDS011;6737;51.480;11.962;2023-02-26T03:59:32;2.20;;;1.43;;
13335;SDS011;6737;51.480;11.962;2023-02-26T04:02:43;3.33;;;1.00;;
13335;SDS011;6737;51.480;11.962;2023-02-26T04:04:55;2.30;;;1.10;;
13335;SDS011;6737;51.480;11.962;2023-02-26T04:07:24;2.63;;;1.20;;
13335;SDS011;6737;51.480;11.962;2023-02-26T04:09:51;2.90;;;0.90;;
13335;SDS011;6737;51.480;11.962;2023-02-26T04:12:21;3.67;;;1.23;;
13335;SDS011;6737;51.480;11.962;2023-02-26T04:14:48;3.70;;;1.40;;
13335;SDS011;6737;51.480;11.962;2023-02-26T04:17:14;1.93;;;1.10;;
13335;SDS011;6737;51.480;11.962;2023-02-26T04:19:40;3.20;;;1.10;;
13335;SDS011;6737;51.480;11.962;2023-02-26T04:22:06;1.80;;;1.10;;
13335;SDS011;6737;51.480;11.962;2023-02-26T04:24:32;2.27;;;1.10;;
13335;SDS011;6737;51.480;11.962;2023-02-26T04:26:58;3.43;;;1.13;;
13335;SDS011;6737;51.480;11.962;2023-02-26T04:29:23;2.20;;;1.20;;
13335;SDS011;6737;51.480;11.962;2023-02-26T04:31:49;2.70;;;1.20;;
13335;SDS011;6737;51.480;11.962;2023-02-26T04:34:15;2.40;;;1.00;;
13335;SDS011;6737;51.480;11.962;2023-02-26T04:36:41;3.43;;;1.00;;
13335;SDS011;6737;51.480;11.962;2023-02-26T04:39:07;5.27;;;1.00;;
13335;SDS011;6737;51.480;11.962;2023-02-26T04:41:35;3.17;;;1.17;;
13335;SDS011;6737;51.480;11.962;2023-02-26T04:44:02;1.60;;;1.10;;
13335;SDS011;6737;51.480;11.962;2023-02-26T04:46:28;3.77;;;1.30;;
13335;SDS011;6737;51.480;11.962;2023-02-26T04:48:54;3.57;;;1.20;;
13335;SDS011;6737;51.480;11.962;2023-02-26T04:51:20;3.33;;;1.43;;
13335;SDS011;6737;51.480;11.962;2023-02-26T04:53:45;3.93;;;1.10;;
13335;SDS011;6737;51.480;11.962;2023-02-26T04:56:11;2.73;;;1.10;;
13335;SDS011;6737;51.480;11.962;2023-02-26T04:58:37;2.43;;;0.90;;
13335;SDS011;6737;51.480;11.962;2023-02-26T05:01:03;2.87;;;1.20;;
13335;SDS011;6737;51.480;11.962;2023-02-26T05:03:30;3.43;;;1.10;;
13335;SDS011;6737;51.480;11.962;2023-02-26T05:05:55;3.03;;;1.07;;
13335;SDS011;6737;51.480;11.962;2023-02-26T05:08:21;4.07;;;1.10;;
13335;SDS011;6737;51.480;11.962;2023-02-26T05:10:47;4.53;;;1.10;;
13335;SDS011;6737;51.480;11.962;2023-02-26T05:13:15;3.37;;;1.17;;
13335;SDS011;6737;51.480;11.962;2023-02-26T05:15:41;2.07;;;1.00;;
13335;SDS011;6737;51.480;11.962;2023-02-26T05:18:06;2.90;;;1.17;;
13335;SDS011;6737;51.480;11.962;2023-02-26T05:20:32;2.90;;;1.00;;
13335;SDS011;6737;51.480;11.962;2023-02-26T05:22:58;2.87;;;0.93;;
13335;SDS011;6737;51.480;11.962;2023-02-26T05:25:24;2.50;;;1.13;;
13335;SDS011;6737;51.480;11.962;2023-02-26T05:27:49;3.60;;;1.10;;
13335;SDS011;6737;51.480;11.962;2023-02-26T05:30:15;2.47;;;1.10;;
13335;SDS011;6737;51.480;11.962;2023-02-26T05:32:41;2.73;;;1.10;;
13335;SDS011;6737;51.480;11.962;2023-02-26T05:35:08;5.27;;;1.37;;
13335;SDS011;6737;51.480;11.962;2023-02-26T05:37:34;3.37;;;1.23;;
13335;SDS011;6737;51.480;11.962;2023-02-26T05:40:00;4.83;;;1.30;;
13335;SDS011;6737;51.480;11.962;2023-02-26T05:42:28;4.17;;;1.00;;
13335;SDS011;6737;51.480;11.962;2023-02-26T05:44:54;4.13;;;1.17;;
13335;SDS011;6737;51.480;11.962;2023-02-26T05:47:22;3.30;;;1.20;;
13335;SDS011;6737;51.480;11.962;2023-02-26T05:49:48;2.80;;;0.93;;
13335;SDS011;6737;51.480;11.962;2023-02-26T05:52:14;2.17;;;1.03;;
13335;SDS011;6737;51.480;11.962;2023-02-26T05:54:39;3.03;;;1.20;;
13335;SDS011;6737;51.480;11.962;2023-02-26T05:57:05;2.87;;;1.23;;
13335;SDS011;6737;51.480;11.962;2023-02-26T05:59:31;4.00;;;1.37;;
13335;SDS011;6737;51.480;11.962;2023-02-26T06:01:57;1.57;;;1.20;;
13335;SDS011;6737;51.480;11.962;2023-02-26T06:04:23;3.10;;;1.13;;
13335;SDS011;6737;51.480;11.962;2023-02-26T06:06:49;3.03;;;1.20;;
13335;SDS011;6737;51.480;11.962;2023-02-26T06:09:14;2.67;;;1.20;;
13335;SDS011;6737;51.480;11.962;2023-02-26T06:11:40;2.67;;;0.90;;
13335;SDS011;6737;51.480;11.962;2023-02-26T06:14:06;2.37;;;1.17;;
13335;SDS011;6737;51.480;11.962;2023-02-26T06:16:32;4.07;;;1.40;;
13335;SDS011;6737;51.480;11.962;2023-02-26T06:19:00;1.73;;;1.00;;
13335;SDS011;6737;51.480;11.962;2023-02-26T06:21:26;3.50;;;1.00;;
13335;SDS011;6737;51.480;11.962;2023-02-26T06:23:52;2.00;;;1.10;;
13335;SDS011;6737;51.480;11.962;2023-02-26T06:26:18;2.70;;;1.00;;
13335;SDS011;6737;51.480;11.962;2023-02-26T06:28:44;2.67;;;1.20;;
13335;SDS011;6737;51.480;11.962;2023-02-26T06:31:10;3.40;;;0.90;;
13335;SDS011;6737;51.480;11.962;2023-02-26T06:33:35;2.60;;;1.10;;
13335;SDS011;6737;51.480;11.962;2023-02-26T06:36:01;3.73;;;1.30;;
13335;SDS011;6737;51.480;11.962;2023-02-26T06:38:27;3.77;;;1.10;;
13335;SDS011;6737;51.480;11.962;2023-02-26T06:40:53;2.70;;;1.17;;
13335;SDS011;6737;51.480;11.962;2023-02-26T06:43:19;4.47;;;1.67;;
13335;SDS011;6737;51.480;11.962;2023-02-26T06:45:45;2.57;;;1.00;;
13335;SDS011;6737;51.480;11.962;2023-02-26T06:48:11;4.07;;;1.10;;
13335;SDS011;6737;51.480;11.962;2023-02-26T06:50:36;3.03;;;1.10;;
13335;SDS011;6737;51.480;11.962;2023-02-26T06:53:03;6.20;;;1.20;;
13335;SDS011;6737;51.480;11.962;2023-02-26T06:55:29;2.23;;;1.37;;
13335;SDS011;6737;51.480;11.962;2023-02-26T06:57:55;2.33;;;1.00;;
13335;SDS011;6737;51.480;11.962;2023-02-26T07:00:22;3.00;;;1.40;;
13335;SDS011;6737;51.480;11.962;2023-02-26T07:02:49;2.63;;;1.17;;
13335;SDS011;6737;51.480;11.962;2023-02-26T07:05:15;2.03;;;1.20;;
13335;SDS011;6737;51.480;11.962;2023-02-26T07:07:41;5.70;;;1.30;;
13335;SDS011;6737;51.480;11.962;2023-02-26T07:10:08;4.00;;;1.20;;
13335;SDS011;6737;51.480;11.962;2023-02-26T07:12:35;3.43;;;1.30;;
13335;SDS011;6737;51.480;11.962;2023-02-26T07:15:05;2.80;;;1.23;;
13335;SDS011;6737;51.480;11.962;2023-02-26T07:17:32;3.10;;;1.20;;
13335;SDS011;6737;51.480;11.962;2023-02-26T07:19:57;5.07;;;1.30;;
13335;SDS011;6737;51.480;11.962;2023-02-26T07:22:25;3.13;;;1.20;;
13335;SDS011;6737;51.480;11.962;2023-02-26T07:24:50;2.03;;;1.00;;
13335;SDS011;6737;51.480;11.962;2023-02-26T07:27:16;2.93;;;1.10;;
13335;SDS011;6737;51.480;11.962;2023-02-26T07:29:42;2.63;;;1.20;;
13335;SDS011;6737;51.480;11.962;2023-02-26T07:32:07;2.40;;;1.10;;
13335;SDS011;6737;51.480;11.962;2023-02-26T07:34:33;4.20;;;1.10;;
13335;SDS011;6737;51.480;11.962;2023-02-26T07:36:59;3.13;;;1.47;;
13335;SDS011;6737;51.480;11.962;2023-02-26T07:39:25;4.30;;;1.40;;
13335;SDS011;6737;51.480;11.962;2023-02-26T07:41:51;2.83;;;1.10;;
13335;SDS011;6737;51.480;11.962;2023-02-26T07:44:17;1.60;;;1.10;;
13335;SDS011;6737;51.480;11.962;2023-02-26T07:46:43;4.03;;;1.50;;
13335;SDS011;6737;51.480;11.962;2023-02-26T07:49:09;2.27;;;1.20;;
13335;SDS011;6737;51.480;11.962;2023-02-26T07:51:36;2.87;;;1.30;;
13335;SDS011;6737;51.480;11.962;2023-02-26T07:54:02;3.33;;;1.30;;
13335;SDS011;6737;51.480;11.962;2023-02-26T07:56:28;1.97;;;1.20;;
13335;SDS011;6737;51.480;11.962;2023-02-26T07:58:54;2.87;;;1.23;;
13335;SDS011;6737;51.480;11.962;2023-02-26T08:01:20;4.23;;;1.83;;
13335;SDS011;6737;51.480;11.962;2023-02-26T08:03:46;2.83;;;1.20;;
13335;SDS011;6737;51.480;11.962;2023-02-26T08:06:12;3.53;;;1.10;;
13335;SDS011;6737;51.480;11.962;2023-02-26T08:08:38;3.57;;;1.20;;
13335;SDS011;6737;51.480;11.962;2023-02-26T08:11:04;3.50;;;1.07;;
13335;SDS011;6737;51.480;11.962;2023-02-26T08:13:30;4.13;;;1.27;;
13335;SDS011;6737;51.480;11.962;2023-02-26T08:15:56;7.43;;;1.20;;
13335;SDS011;6737;51.480;11.962;2023-02-26T08:18:21;2.67;;;1.20;;
13335;SDS011;6737;51.480;11.962;2023-02-26T08:20:49;2.87;;;1.10;;
13335;SDS011;6737;51.480;11.962;2023-02-26T08:23:16;4.37;;;1.30;;
13335;SDS011;6737;51.480;11.962;2023-02-26T08:25:42;2.43;;;1.17;;
13335;SDS011;6737;51.480;11.962;2023-02-26T08:28:08;4.17;;;1.27;;
13335;SDS011;6737;51.480;11.962;2023-02-26T08:30:34;2.93;;;1.10;;
13335;SDS011;6737;51.480;11.962;2023-02-26T08:32:59;3.77;;;1.23;;
13335;SDS011;6737;51.480;11.962;2023-02-26T08:35:25;2.20;;;1.00;;
13335;SDS011;6737;51.480;11.962;2023-02-26T08:37:51;3.67;;;1.00;;
13335;SDS011;6737;51.480;11.962;2023-02-26T08:40:17;1.60;;;0.90;;
13335;SDS011;6737;51.480;11.962;2023-02-26T08:42:43;3.00;;;1.00;;
13335;SDS011;6737;51.480;11.962;2023-02-26T08:45:09;2.20;;;1.10;;
13335;SDS011;6737;51.480;11.962;2023-02-26T08:47:35;2.33;;;1.20;;
13335;SDS011;6737;51.480;11.962;2023-02-26T08:50:02;2.97;;;1.30;;
13335;SDS011;6737;51.480;11.962;2023-02-26T08:52:29;3.50;;;1.30;;
13335;SDS011;6737;51.480;11.962;2023-02-26T08:54:55;2.40;;;1.10;;
13335;SDS011;6737;51.480;11.962;2023-02-26T08:57:20;3.87;;;1.00;;
13335;SDS011;6737;51.480;11.962;2023-02-26T08:59:46;2.97;;;1.00;;
13335;SDS011;6737;51.480;11.962;2023-02-26T09:02:12;2.23;;;1.00;;
13335;SDS011;6737;51.480;11.962;2023-02-26T09:04:38;2.13;;;1.10;;
13335;SDS011;6737;51.480;11.962;2023-02-26T09:07:04;2.00;;;0.97;;
13335;SDS011;6737;51.480;11.962;2023-02-26T09:09:30;2.30;;;1.07;;
13335;SDS011;6737;51.480;11.962;2023-02-26T09:11:56;3.07;;;0.97;;
13335;SDS011;6737;51.480;11.962;2023-02-26T09:14:23;2.50;;;1.00;;
13335;SDS011;6737;51.480;11.962;2023-02-26T09:16:49;3.07;;;1.40;;
13335;SDS011;6737;51.480;11.962;2023-02-26T09:19:15;2.27;;;1.30;;
13335;SDS011;6737;51.480;11.962;2023-02-26T09:21:41;1.53;;;0.87;;
13335;SDS011;6737;51.480;11.962;2023-02-26T09:24:07;3.17;;;1.27;;
13335;SDS011;6737;51.480;11.962;2023-02-26T09:26:33;4.07;;;1.23;;
13335;SDS011;6737;51.480;11.962;2023-02-26T09:28:59;3.77;;;1.70;;
13335;SDS011;6737;51.480;11.962;2023-02-26T09:31:25;1.80;;;1.17;;
13335;SDS011;6737;51.480;11.962;2023-02-26T09:33:52;3.93;;;1.30;;
13335;SDS011;6737;51.480;11.962;2023-02-26T09:36:18;2.90;;;1.23;;
13335;SDS011;6737;51.480;11.962;2023-02-26T09:38:43;2.47;;;1.17;;
13335;SDS011;6737;51.480;11.962;2023-02-26T09:42:12;3.13;;;1.10;;
13335;SDS011;6737;51.480;11.962;2023-02-26T09:46:45;3.13;;;1.13;;
13335;SDS011;6737;51.480;11.962;2023-02-26T09:52:55;3.03;;;1.07;;
13335;SDS011;6737;51.480;11.962;2023-02-26T09:54:50;2.67;;;0.90;;
13335;SDS011;6737;51.480;11.962;2023-02-26T09:57:41;1.77;;;0.93;;
13335;SDS011;6737;51.480;11.962;2023-02-26T10:00:57;2.13;;;0.93;;
13335;SDS011;6737;51.480;11.962;2023-02-26T10:03:31;1.10;;;1.00;;
13335;SDS011;6737;51.480;11.962;2023-02-26T10:06:12;1.07;;;0.83;;
13335;SDS011;6737;51.480;11.962;2023-02-26T10:14:31;1.50;;;0.90;;
13335;SDS011;6737;51.480;11.962;2023-02-26T10:17:11;1.57;;;0.73;;
13335;SDS011;6737;51.480;11.962;2023-02-26T10:20:14;2.67;;;1.00;;
13335;SDS011;6737;51.480;11.962;2023-02-26T10:22:56;1.67;;;0.90;;
13335;SDS011;6737;51.480;11.962;2023-02-26T10:25:57;2.37;;;0.90;;
13335;SDS011;6737;51.480;11.962;2023-02-26T10:42:32;1.87;;;0.80;;
13335;SDS011;6737;51.480;11.962;2023-02-26T10:45:13;2.13;;;0.97;;
13335;SDS011;6737;51.480;11.962;2023-02-26T10:47:57;2.03;;;1.30;;
13335;SDS011;6737;51.480;11.962;2023-02-26T10:50:26;3.23;;;1.40;;
13335;SDS011;6737;51.480;11.962;2023-02-26T10:52:52;1.87;;;0.87;;
13335;SDS011;6737;51.480;11.962;2023-02-26T10:55:27;2.30;;;0.90;;
13335;SDS011;6737;51.480;11.962;2023-02-26T10:58:11;3.00;;;1.03;;
13335;SDS011;6737;51.480;11.962;2023-02-26T11:00:49;1.20;;;0.70;;
13335;SDS011;6737;51.480;11.962;2023-02-26T11:03:33;2.17;;;0.90;;
13335;SDS011;6737;51.480;11.962;2023-02-26T11:06:03;1.63;;;0.83;;
13335;SDS011;6737;51.480;11.962;2023-02-26T11:08:31;2.23;;;0.77;;
13335;SDS011;6737;51.480;11.962;2023-02-26T11:11:06;3.47;;;1.20;;
13335;SDS011;6737;51.480;11.962;2023-02-26T11:13:33;1.90;;;0.80;;
13335;SDS011;6737;51.480;11.962;2023-02-26T11:16:12;3.53;;;1.00;;
13335;SDS011;6737;51.480;11.962;2023-02-26T11:18:44;1.97;;;1.03;;
13335;SDS011;6737;51.480;11.962;2023-02-26T11:21:20;2.57;;;0.93;;
13335;SDS011;6737;51.480;11.962;2023-02-26T11:23:51;1.27;;;0.70;;
13335;SDS011;6737;51.480;11.962;2023-02-26T11:26:25;1.20;;;0.70;;
13335;SDS011;6737;51.480;11.962;2023-02-26T11:28:55;1.97;;;0.90;;
13335;SDS011;6737;51.480;11.962;2023-02-26T11:31:23;1.57;;;0.87;;
13335;SDS011;6737;51.480;11.962;2023-02-26T11:33:51;2.13;;;0.90;;
13335;SDS011;6737;51.480;11.962;2023-02-26T11:36:27;3.23;;;1.00;;
13335;SDS011;6737;51.480;11.962;2023-02-26T11:38:56;0.83;;;0.70;;
13335;SDS011;6737;51.480;11.962;2023-02-26T11:41:26;1.97;;;0.70;;
13335;SDS011;6737;51.480;11.962;2023-02-26T11:44:12;1.77;;;0.77;;
13335;SDS011;6737;51.480;11.962;2023-02-26T11:46:44;3.10;;;1.00;;
13335;SDS011;6737;51.480;11.962;2023-02-26T11:49:15;2.77;;;0.80;;
13335;SDS011;6737;51.480;11.962;2023-02-26T11:51:44;1.33;;;0.80;;
13335;SDS011;6737;51.480;11.962;2023-02-26T11:54:24;3.73;;;0.90;;
13335;SDS011;6737;51.480;11.962;2023-02-26T11:56:59;1.57;;;0.80;;
13335;SDS011;6737;51.480;11.962;2023-02-26T11:59:26;1.37;;;0.90;;
13335;SDS011;6737;51.480;11.962;2023-02-26T12:01:56;1.53;;;0.80;;
13335;SDS011;6737;51.480;11.962;2023-02-26T12:04:28;2.20;;;1.00;;
13335;SDS011;6737;51.480;11.962;2023-02-26T12:06:56;1.17;;;0.90;;
13335;SDS011;6737;51.480;11.962;2023-02-26T12:09:22;1.70;;;1.00;;
13335;SDS011;6737;51.480;11.962;2023-02-26T12:19:53;1.23;;;0.80;;
13335;SDS011;6737;51.480;11.962;2023-02-26T12:28:06;1.83;;;0.70;;
13335;SDS011;6737;51.480;11.962;2023-02-26T12:31:01;3.70;;;1.00;;
13335;SDS011;6737;51.480;11.962;2023-02-26T12:36:29;3.70;;;0.93;;
13335;SDS011;6737;51.480;11.962;2023-02-26T12:39:02;1.33;;;0.60;;
13335;SDS011;6737;51.480;11.962;2023-02-26T12:58:44;1.77;;;0.80;;
13335;SDS011;6737;51.480;11.962;2023-02-26T13:20:12;4.40;;;1.13;;
13335;SDS011;6737;51.480;11.962;2023-02-26T13:22:47;2.17;;;0.90;;
13335;SDS011;6737;51.480;11.962;2023-02-26T13:28:21;3.93;;;0.93;;
13335;SDS011;6737;51.480;11.962;2023-02-26T13:31:08;1.83;;;0.80;;
13335;SDS011;6737;51.480;11.962;2023-02-26T13:33:54;4.93;;;1.13;;
13335;SDS011;6737;51.480;11.962;2023-02-26T13:36:23;2.93;;;1.00;;
13335;SDS011;6737;51.480;11.962;2023-02-26T13:42:09;3.23;;;0.90;;
13335;SDS011;6737;51.480;11.962;2023-02-26T13:53:33;2.87;;;0.90;;
13335;SDS011;6737;51.480;11.962;2023-02-26T13:58:51;1.90;;;0.80;;
13335;SDS011;6737;51.480;11.962;2023-02-26T14:01:25;2.83;;;0.90;;
13335;SDS011;6737;51.480;11.962;2023-02-26T14:07:11;1.53;;;0.70;;
13335;SDS011;6737;51.480;11.962;2023-02-26T14:12:36;2.30;;;0.80;;
13335;SDS011;6737;51.480;11.962;2023-02-26T14:20:17;1.20;;;0.90;;
13335;SDS011;6737;51.480;11.962;2023-02-26T14:22:48;2.30;;;1.00;;
13335;SDS011;6737;51.480;11.962;2023-02-26T14:25:37;2.67;;;0.90;;
13335;SDS011;6737;51.480;11.962;2023-02-26T14:33:30;3.23;;;1.10;;
13335;SDS011;6737;51.480;11.962;2023-02-26T14:36:05;1.50;;;0.80;;
13335;SDS011;6737;51.480;11.962;2023-02-26T14:38:39;1.30;;;0.80;;
13335;SDS011;6737;51.480;11.962;2023-02-26T14:44:11;2.10;;;0.93;;
13335;SDS011;6737;51.480;11.962;2023-02-26T14:46:43;1.90;;;0.70;;
13335;SDS011;6737;51.480;11.962;2023-02-26T14:49:13;4.03;;;1.00;;
13335;SDS011;6737;51.480;11.962;2023-02-26T15:00:40;1.87;;;0.90;;
13335;SDS011;6737;51.480;11.962;2023-02-26T15:08:43;4.97;;;1.40;;
13335;SDS011;6737;51.480;11.962;2023-02-26T15:11:35;4.40;;;1.10;;
13335;SDS011;6737;51.480;11.962;2023-02-26T15:17:09;4.27;;;1.30;;
13335;SDS011;6737;51.480;11.962;2023-02-26T15:19:46;1.90;;;1.10;;
13335;SDS011;6737;51.480;11.962;2023-02-26T15:25:26;3.80;;;1.30;;
13335;SDS011;6737;51.480;11.962;2023-02-26T15:27:55;2.60;;;1.20;;
13335;SDS011;6737;51.480;11.962;2023-02-26T15:30:22;2.57;;;1.30;;
13335;SDS011;6737;51.480;11.962;2023-02-26T15:32:48;2.30;;;1.00;;
13335;SDS011;6737;51.480;11.962;2023-02-26T15:35:22;3.50;;;1.20;;
13335;SDS011;6737;51.480;11.962;2023-02-26T15:37:52;1.30;;;0.90;;
13335;SDS011;6737;51.480;11.962;2023-02-26T15:40:21;2.63;;;1.03;;
13335;SDS011;6737;51.480;11.962;2023-02-26T15:42:47;3.77;;;1.10;;
13335;SDS011;6737;51.480;11.962;2023-02-26T15:45:22;2.83;;;1.17;;
13335;SDS011;6737;51.480;11.962;2023-02-26T15:47:55;2.93;;;1.17;;
13335;SDS011;6737;51.480;11.962;2023-02-26T15:50:26;2.50;;;1.10;;
13335;SDS011;6737;51.480;11.962;2023-02-26T15:53:03;2.87;;;1.00;;
13335;SDS011;6737;51.480;11.962;2023-02-26T15:55:32;2.93;;;1.10;;
13335;SDS011;6737;51.480;11.962;2023-02-26T15:58:07;1.80;;;1.07;;
13335;SDS011;6737;51.480;11.962;2023-02-26T16:00:34;1.53;;;1.03;;
13335;SDS011;6737;51.480;11.962;2023-02-26T16:03:01;2.37;;;1.17;;
13335;SDS011;6737;51.480;11.962;2023-02-26T16:05:28;1.53;;;0.83;;
13335;SDS011;6737;51.480;11.962;2023-02-26T16:07:55;1.63;;;1.10;;
13335;SDS011;6737;51.480;11.962;2023-02-26T16:10:32;2.03;;;1.13;;
13335;SDS011;6737;51.480;11.962;2023-02-26T16:13:05;2.10;;;1.10;;
13335;SDS011;6737;51.480;11.962;2023-02-26T16:15:38;1.93;;;1.10;;
13335;SDS011;6737;51.480;11.962;2023-02-26T16:18:05;2.70;;;1.20;;
13335;SDS011;6737;51.480;11.962;2023-02-26T16:20:43;3.83;;;1.20;;
13335;SDS011;6737;51.480;11.962;2023-02-26T16:23:15;2.60;;;1.40;;
13335;SDS011;6737;51.480;11.962;2023-02-26T16:25:51;3.80;;;1.30;;
13335;SDS011;6737;51.480;11.962;2023-02-26T16:28:29;2.33;;;1.40;;
13335;SDS011;6737;51.480;11.962;2023-02-26T16:31:22;3.27;;;1.53;;
13335;SDS011;6737;51.480;11.962;2023-02-26T16:33:56;4.23;;;1.80;;
13335;SDS011;6737;51.480;11.962;2023-02-26T16:36:45;3.40;;;1.80;;
13335;SDS011;6737;51.480;11.962;2023-02-26T16:39:16;4.77;;;2.10;;
13335;SDS011;6737;51.480;11.962;2023-02-26T16:42:35;3.97;;;2.10;;
13335;SDS011;6737;51.480;11.962;2023-02-26T16:47:37;5.17;;;2.00;;
13335;SDS011;6737;51.480;11.962;2023-02-26T16:50:04;3.30;;;1.80;;
13335;SDS011;6737;51.480;11.962;2023-02-26T16:53:19;3.23;;;1.90;;
13335;SDS011;6737;51.480;11.962;2023-02-26T16:55:49;4.47;;;1.97;;
13335;SDS011;6737;51.480;11.962;2023-02-26T16:58:18;4.10;;;2.00;;
13335;SDS011;6737;51.480;11.962;2023-02-26T17:00:49;6.13;;;2.00;;
13335;SDS011;6737;51.480;11.962;2023-02-26T17:03:24;4.23;;;1.90;;
13335;SDS011;6737;51.480;11.962;2023-02-26T17:06:04;3.67;;;1.60;;
13335;SDS011;6737;51.480;11.962;2023-02-26T17:08:48;5.63;;;1.70;;
13335;SDS011;6737;51.480;11.962;2023-02-26T17:14:07;3.10;;;1.70;;
13335;SDS011;6737;51.480;11.962;2023-02-26T17:16:39;2.40;;;1.50;;
13335;SDS011;6737;51.480;11.962;2023-02-26T17:19:05;4.17;;;1.50;;
13335;SDS011;6737;51.480;11.962;2023-02-26T17:21:31;3.40;;;1.60;;
13335;SDS011;6737;51.480;11.962;2023-02-26T17:23:57;2.63;;;1.80;;
13335;SDS011;6737;51.480;11.962;2023-02-26T17:26:23;4.80;;;2.00;;
13335;SDS011;6737;51.480;11.962;2023-02-26T17:28:49;6.03;;;2.40;;
13335;SDS011;6737;51.480;11.962;2023-02-26T17:31:15;4.67;;;2.17;;
13335;SDS011;6737;51.480;11.962;2023-02-26T17:33:41;4.00;;;2.30;;
13335;SDS011;6737;51.480;11.962;2023-02-26T17:36:11;2.93;;;1.93;;
13335;SDS011;6737;51.480;11.962;2023-02-26T17:38:39;4.10;;;2.50;;
13335;SDS011;6737;51.480;11.962;2023-02-26T17:41:13;4.07;;;2.20;;
13335;SDS011;6737;51.480;11.962;2023-02-26T17:43:40;5.43;;;2.50;;
13335;SDS011;6737;51.480;11.962;2023-02-26T17:46:08;7.07;;;3.10;;
13335;SDS011;6737;51.480;11.962;2023-02-26T17:48:36;5.30;;;2.33;;
13335;SDS011;6737;51.480;11.962;2023-02-26T17:51:02;5.93;;;2.80;;
13335;SDS011;6737;51.480;11.962;2023-02-26T17:53:28;3.87;;;2.50;;
13335;SDS011;6737;51.480;11.962;2023-02-26T17:55:58;4.40;;;2.40;;
13335;SDS011;6737;51.480;11.962;2023-02-26T17:58:25;6.97;;;2.60;;
13335;SDS011;6737;51.480;11.962;2023-02-26T18:00:53;7.63;;;2.47;;
13335;SDS011;6737;51.480;11.962;2023-02-26T18:03:19;4.13;;;2.00;;
13335;SDS011;6737;51.480;11.962;2023-02-26T18:05:46;5.00;;;2.20;;
13335;SDS011;6737;51.480;11.962;2023-02-26T18:08:32;4.50;;;1.90;;
13335;SDS011;6737;51.480;11.962;2023-02-26T18:10:59;3.97;;;2.00;;
13335;SDS011;6737;51.480;11.962;2023-02-26T18:13:26;3.43;;;2.13;;
13335;SDS011;6737;51.480;11.962;2023-02-26T18:15:53;3.60;;;1.83;;
13335;SDS011;6737;51.480;11.962;2023-02-26T18:18:22;5.57;;;2.00;;
13335;SDS011;6737;51.480;11.962;2023-02-26T18:20:49;3.43;;;1.90;;
13335;SDS011;6737;51.480;11.962;2023-02-26T18:23:16;4.47;;;1.90;;
13335;SDS011;6737;51.480;11.962;2023-02-26T18:25:45;3.47;;;1.60;;
13335;SDS011;6737;51.480;11.962;2023-02-26T18:28:17;2.43;;;1.60;;